createdAt,value
2024-04-05T00:00:19.612Z,12.88
2024-04-05T00:01:19.522Z,12.87
2024-04-05T00:02:19.426Z,12.87
2024-04-05T00:03:19.587Z,12.86
2024-04-05T00:04:19.488Z,12.85
2024-04-05T00:05:19.396Z,12.85
2024-04-05T00:06:19.549Z,12.84
2024-04-05T00:07:19.453Z,12.83
2024-04-05T00:08:19.366Z,12.83
2024-04-05T00:09:19.519Z,12.82
2024-04-05T00:10:19.423Z,12.81
2024-04-05T00:11:19.606Z,12.80
2024-04-05T00:12:19.484Z,12.80
2024-04-05T00:13:19.397Z,12.80
2024-04-05T00:14:19.299Z,12.80
2024-04-05T00:15:19.455Z,12.79
2024-04-05T00:16:19.358Z,12.79
2024-04-05T00:17:19.518Z,12.79
2024-04-05T00:18:19.424Z,12.79
2024-04-05T00:19:19.323Z,12.79
2024-04-05T00:20:19.228Z,12.80
2024-04-05T00:21:19.390Z,12.79
2024-04-05T00:22:19.293Z,12.80
2024-04-05T00:23:19.204Z,12.80
2024-04-05T00:24:19.361Z,12.79
2024-04-05T00:25:19.259Z,12.80
2024-04-05T00:26:19.164Z,12.80
2024-04-05T00:27:19.326Z,12.80
2024-04-05T00:28:19.227Z,12.80
2024-04-05T00:29:19.134Z,12.81
2024-04-05T00:30:19.298Z,12.80
2024-04-05T00:31:19.206Z,12.80
2024-04-05T00:32:19.099Z,12.81
2024-04-05T00:33:19.273Z,12.80
2024-04-05T00:34:19.166Z,12.79
2024-04-05T00:35:19.079Z,12.79
2024-04-05T00:36:19.233Z,12.80
2024-04-05T00:37:19.134Z,12.80
2024-04-05T00:38:19.037Z,12.79
2024-04-05T00:39:19.198Z,12.79
2024-04-05T00:40:19.099Z,12.79
2024-04-05T00:41:19.004Z,12.79
2024-04-05T00:42:19.481Z,12.78
2024-04-05T00:43:19.084Z,12.77
2024-04-05T00:44:18.974Z,12.77
2024-04-05T00:45:19.131Z,12.76
2024-04-05T00:46:19.037Z,12.76
2024-04-05T00:47:18.943Z,12.76
2024-04-05T00:48:19.102Z,12.76
2024-04-05T00:49:19.006Z,12.76
2024-04-05T00:50:18.911Z,12.74
2024-04-05T00:51:19.066Z,12.74
2024-04-05T00:52:18.973Z,12.73
2024-04-05T00:53:18.879Z,12.74
2024-04-05T00:54:19.037Z,12.73
2024-04-05T00:55:18.948Z,12.73
2024-04-05T00:56:18.850Z,12.72
2024-04-05T00:57:19.004Z,12.72
2024-04-05T00:58:18.932Z,12.71
2024-04-05T00:59:18.052Z,12.70
2024-04-05T01:00:18.982Z,12.70
2024-04-05T01:01:18.031Z,12.69
2024-04-05T01:02:18.781Z,12.68
2024-04-05T01:03:18.939Z,12.67
2024-04-05T01:04:18.855Z,12.67
2024-04-05T01:05:18.754Z,12.67
2024-04-05T01:06:18.909Z,12.67
2024-04-05T01:07:18.815Z,12.67
2024-04-05T01:08:18.011Z,12.70
2024-04-05T01:09:18.878Z,12.72
2024-04-05T01:10:18.805Z,12.75
2024-04-05T01:11:17.934Z,12.78
2024-04-05T01:12:18.846Z,12.80
2024-04-05T01:13:18.756Z,12.83
2024-04-05T01:14:18.932Z,12.86
2024-04-05T01:15:18.812Z,12.88
2024-04-05T01:16:17.876Z,12.89
2024-04-05T01:17:17.872Z,12.91
2024-04-05T01:18:17.851Z,12.92
2024-04-05T01:19:17.880Z,12.93
2024-04-05T01:20:17.898Z,12.94
2024-04-05T01:21:18.755Z,12.93
2024-04-05T01:22:18.660Z,12.94
2024-04-05T01:23:17.814Z,12.93
2024-04-05T01:24:17.802Z,12.93
2024-04-05T01:25:18.629Z,12.92
2024-04-05T01:26:18.783Z,12.91
2024-04-05T01:27:18.686Z,12.90
2024-04-05T01:28:17.757Z,12.89
2024-04-05T01:29:17.751Z,12.87
2024-04-05T01:30:18.651Z,12.86
2024-04-05T01:31:17.902Z,12.85
2024-04-05T01:32:17.713Z,12.83
2024-04-05T01:33:18.627Z,12.82
2024-04-05T01:34:17.714Z,12.81
2024-04-05T01:35:18.434Z,12.79
2024-04-05T01:36:18.592Z,12.79
2024-04-05T01:37:18.494Z,12.78
2024-04-05T01:38:18.405Z,12.76
2024-04-05T01:39:18.565Z,12.76
2024-04-05T01:40:18.464Z,12.76
2024-04-05T01:41:18.363Z,12.75
2024-04-05T01:42:18.526Z,12.77
2024-04-05T01:43:18.431Z,12.75
2024-04-05T01:44:18.462Z,12.74
2024-04-05T01:45:17.545Z,12.75
2024-04-05T01:46:17.570Z,12.75
2024-04-05T01:47:18.301Z,12.75
2024-04-05T01:48:17.527Z,12.75
2024-04-05T01:49:18.365Z,12.75
2024-04-05T01:50:18.275Z,12.76
2024-04-05T01:51:18.444Z,12.76
2024-04-05T01:52:17.635Z,12.78
2024-04-05T01:53:18.245Z,12.77
2024-04-05T01:54:18.397Z,12.78
2024-04-05T01:55:18.304Z,12.79
2024-04-05T01:56:18.212Z,12.81
2024-04-05T01:57:18.367Z,12.82
2024-04-05T01:58:18.270Z,12.84
2024-04-05T01:59:18.171Z,12.87
2024-04-05T02:00:18.358Z,12.88
2024-04-05T02:01:18.241Z,12.90
2024-04-05T02:02:18.442Z,12.93
2024-04-05T02:03:18.289Z,12.94
2024-04-05T02:04:17.337Z,12.95
2024-04-05T02:05:17.334Z,12.96
2024-04-05T02:06:17.325Z,12.96
2024-04-05T02:07:17.310Z,12.96
2024-04-05T02:08:18.349Z,12.97
2024-04-05T02:09:18.244Z,12.96
2024-04-05T02:10:18.148Z,12.95
2024-04-05T02:11:18.043Z,12.95
2024-04-05T02:12:17.257Z,12.94
2024-04-05T02:13:18.110Z,12.93
2024-04-05T02:14:17.323Z,12.92
2024-04-05T02:15:18.182Z,12.92
2024-04-05T02:16:18.084Z,12.91
2024-04-05T02:17:17.982Z,12.92
2024-04-05T02:18:18.151Z,12.92
2024-04-05T02:19:17.182Z,12.93
2024-04-05T02:20:17.203Z,12.94
2024-04-05T02:21:18.123Z,12.95
2024-04-05T02:22:18.016Z,12.97
2024-04-05T02:23:17.133Z,12.99
2024-04-05T02:24:18.579Z,13.02
2024-04-05T02:25:17.989Z,13.05
2024-04-05T02:26:17.888Z,13.07
2024-04-05T02:27:18.051Z,13.10
2024-04-05T02:28:17.110Z,13.12
2024-04-05T02:29:17.856Z,13.16
2024-04-05T02:30:17.067Z,13.19
2024-04-05T02:31:18.005Z,13.22
2024-04-05T02:32:17.823Z,13.24
2024-04-05T02:33:17.999Z,13.26
2024-04-05T02:34:17.009Z,13.29
2024-04-05T02:35:17.795Z,13.32
2024-04-05T02:36:16.994Z,13.35
2024-04-05T02:37:17.856Z,13.37
2024-04-05T02:38:17.756Z,13.39
2024-04-05T02:39:17.923Z,13.41
2024-04-05T02:40:17.838Z,13.42
2024-04-05T02:41:17.729Z,13.43
2024-04-05T02:42:18.356Z,13.43
2024-04-05T02:43:17.796Z,13.44
2024-04-05T02:44:17.696Z,13.44
2024-04-05T02:45:17.861Z,13.45
2024-04-05T02:46:17.760Z,13.46
2024-04-05T02:47:17.667Z,13.46
2024-04-05T02:48:17.826Z,13.47
2024-04-05T02:49:17.734Z,13.48
2024-04-05T02:50:17.889Z,13.49
2024-04-05T02:51:17.791Z,13.50
2024-04-05T02:52:17.693Z,13.50
2024-04-05T02:53:17.631Z,13.52
2024-04-05T02:54:19.110Z,13.53
2024-04-05T02:55:17.662Z,13.55
2024-04-05T02:56:16.827Z,13.56
2024-04-05T02:57:17.727Z,13.57
2024-04-05T02:58:17.708Z,13.60
2024-04-05T02:59:16.750Z,13.61
2024-04-05T03:00:17.697Z,13.62
2024-04-05T03:01:17.604Z,13.65
2024-04-05T03:02:16.848Z,13.66
2024-04-05T03:03:18.147Z,13.68
2024-04-05T03:04:18.608Z,13.70
2024-04-05T03:05:17.482Z,13.72
2024-04-05T03:06:18.129Z,13.73
2024-04-05T03:07:17.536Z,13.75
2024-04-05T03:08:17.445Z,13.77
2024-04-05T03:09:18.074Z,13.78
2024-04-05T03:10:17.502Z,13.80
2024-04-05T03:11:17.406Z,13.80
2024-04-05T03:12:18.047Z,13.82
2024-04-05T03:13:17.468Z,13.82
2024-04-05T03:14:17.376Z,13.82
2024-04-05T03:15:18.013Z,13.84
2024-04-05T03:16:17.436Z,13.84
2024-04-05T03:17:17.342Z,13.84
2024-04-05T03:18:16.551Z,13.83
2024-04-05T03:19:16.538Z,13.83
2024-04-05T03:20:17.308Z,13.82
2024-04-05T03:21:17.470Z,13.81
2024-04-05T03:22:17.374Z,13.80
2024-04-05T03:23:17.471Z,13.79
2024-04-05T03:24:17.440Z,13.79
2024-04-05T03:25:17.347Z,13.78
2024-04-05T03:26:17.250Z,13.77
2024-04-05T03:27:17.902Z,13.75
2024-04-05T03:28:17.322Z,13.75
2024-04-05T03:29:17.214Z,13.74
2024-04-05T03:30:17.863Z,13.70
2024-04-05T03:31:17.287Z,13.68
2024-04-05T03:32:17.184Z,13.67
2024-04-05T03:33:17.345Z,13.65
2024-04-05T03:34:16.374Z,13.63
2024-04-05T03:35:17.157Z,13.61
2024-04-05T03:36:17.316Z,13.58
2024-04-05T03:37:17.219Z,13.56
2024-04-05T03:38:17.375Z,13.55
2024-04-05T03:39:17.774Z,13.52
2024-04-05T03:40:17.188Z,13.50
2024-04-05T03:41:17.093Z,13.48
2024-04-05T03:42:16.323Z,13.47
2024-04-05T03:43:17.153Z,13.46
2024-04-05T03:44:17.052Z,13.44
2024-04-05T03:45:17.215Z,13.43
2024-04-05T03:46:16.238Z,13.43
2024-04-05T03:47:17.026Z,13.42
2024-04-05T03:48:16.220Z,13.42
2024-04-05T03:49:17.101Z,13.41
2024-04-05T03:50:17.006Z,13.40
2024-04-05T03:51:16.197Z,13.39
2024-04-05T03:52:17.055Z,13.37
2024-04-05T03:53:16.170Z,13.35
2024-04-05T03:54:16.177Z,13.33
2024-04-05T03:55:16.166Z,13.31
2024-04-05T03:56:16.929Z,13.28
2024-04-05T03:57:17.130Z,13.26
2024-04-05T03:58:16.990Z,13.24
2024-04-05T03:59:16.111Z,13.21
2024-04-05T04:00:17.038Z,13.20
2024-04-05T04:01:16.968Z,13.17
2024-04-05T04:02:16.111Z,13.16
2024-04-05T04:03:16.093Z,13.15
2024-04-05T04:04:16.066Z,13.16
2024-04-05T04:05:16.829Z,13.17
2024-04-05T04:06:16.958Z,13.17
2024-04-05T04:07:16.900Z,13.17
2024-04-05T04:08:17.111Z,13.18
2024-04-05T04:09:16.032Z,13.19
2024-04-05T04:10:16.874Z,13.20
2024-04-05T04:11:16.773Z,13.21
2024-04-05T04:12:16.930Z,13.21
2024-04-05T04:13:16.835Z,13.20
2024-04-05T04:14:16.003Z,13.20
2024-04-05T04:15:15.937Z,13.19
2024-04-05T04:16:18.408Z,13.19
2024-04-05T04:17:18.365Z,13.20
2024-04-05T04:18:16.843Z,13.20
2024-04-05T04:19:17.804Z,13.20
2024-04-05T04:20:16.931Z,13.20
2024-04-05T04:21:16.817Z,13.21
2024-04-05T04:22:16.746Z,13.22
2024-04-05T04:23:18.322Z,13.23
2024-04-05T04:24:16.798Z,13.24
2024-04-05T04:25:15.856Z,13.24
2024-04-05T04:26:16.787Z,13.25
2024-04-05T04:27:16.731Z,13.26
2024-04-05T04:28:16.716Z,13.26
2024-04-05T04:29:16.594Z,13.27
2024-04-05T04:30:17.710Z,13.28
2024-04-05T04:31:16.659Z,13.29
2024-04-05T04:32:16.802Z,13.30
2024-04-05T04:33:16.677Z,13.30
2024-04-05T04:34:16.610Z,13.30
2024-04-05T04:35:16.544Z,13.32
2024-04-05T04:36:16.675Z,13.32
2024-04-05T04:37:16.576Z,13.34
2024-04-05T04:38:16.740Z,13.34
2024-04-05T04:39:16.639Z,13.35
2024-04-05T04:40:16.542Z,13.36
2024-04-05T04:41:18.154Z,13.37
2024-04-05T04:42:16.621Z,13.37
2024-04-05T04:43:15.640Z,13.38
2024-04-05T04:44:15.666Z,13.38
2024-04-05T04:45:15.620Z,13.39
2024-04-05T04:46:16.569Z,13.40
2024-04-05T04:47:16.384Z,13.40
2024-04-05T04:48:15.593Z,13.41
2024-04-05T04:49:15.581Z,13.41
2024-04-05T04:50:15.642Z,13.41
2024-04-05T04:51:17.509Z,13.43
2024-04-05T04:52:17.981Z,13.44
2024-04-05T04:53:17.342Z,13.44
2024-04-05T04:54:17.461Z,13.44
2024-04-05T04:55:17.410Z,13.43
2024-04-05T04:56:16.479Z,13.44
2024-04-05T04:57:16.922Z,13.45
2024-04-05T04:58:16.350Z,13.45
2024-04-05T04:59:16.259Z,13.45
2024-04-05T05:00:16.423Z,13.46
2024-04-05T05:01:16.338Z,13.46
2024-04-05T05:02:17.501Z,13.46
2024-04-05T05:03:16.372Z,13.47
2024-04-05T05:04:16.294Z,13.48
2024-04-05T05:05:16.340Z,13.49
2024-04-05T05:06:16.343Z,13.49
2024-04-05T05:07:16.270Z,13.50
2024-04-05T05:08:16.425Z,13.51
2024-04-05T05:09:16.316Z,13.52
2024-04-05T05:10:16.245Z,13.53
2024-04-05T05:11:16.165Z,13.54
2024-04-05T05:12:16.266Z,13.56
2024-04-05T05:13:16.194Z,13.57
2024-04-05T05:14:16.110Z,13.58
2024-04-05T05:15:16.247Z,13.60
2024-04-05T05:16:16.162Z,13.61
2024-04-05T05:17:16.089Z,13.62
2024-04-05T05:18:16.244Z,13.63
2024-04-05T05:19:16.138Z,13.64
2024-04-05T05:20:16.049Z,13.65
2024-04-05T05:21:16.178Z,13.67
2024-04-05T05:22:16.156Z,13.67
2024-04-05T05:23:16.014Z,13.68
2024-04-05T05:24:16.166Z,13.70
2024-04-05T05:25:16.076Z,13.70
2024-04-05T05:26:15.970Z,13.71
2024-04-05T05:27:16.132Z,13.72
2024-04-05T05:28:16.041Z,13.72
2024-04-05T05:29:15.939Z,13.73
2024-04-05T05:30:16.125Z,13.74
2024-04-05T05:31:16.014Z,13.74
2024-04-05T05:32:15.915Z,13.75
2024-04-05T05:33:16.071Z,13.76
2024-04-05T05:34:15.983Z,13.76
2024-04-05T05:35:15.873Z,13.77
2024-04-05T05:36:16.535Z,13.78
2024-04-05T05:37:15.963Z,13.79
2024-04-05T05:38:15.855Z,13.80
2024-04-05T05:39:16.001Z,13.79
2024-04-05T05:40:15.918Z,13.79
2024-04-05T05:41:16.478Z,13.76
2024-04-05T05:42:16.479Z,13.75
2024-04-05T05:43:15.886Z,13.74
2024-04-05T05:44:16.036Z,13.73
2024-04-05T05:45:15.938Z,13.71
2024-04-05T05:46:15.845Z,13.70
2024-04-05T05:47:15.940Z,13.67
2024-04-05T05:48:16.396Z,13.65
2024-04-05T05:49:16.395Z,13.61
2024-04-05T05:50:15.922Z,13.58
2024-04-05T05:51:15.888Z,13.55
2024-04-05T05:52:15.786Z,13.52
2024-04-05T05:53:15.682Z,13.50
2024-04-05T05:54:15.871Z,13.46
2024-04-05T05:55:15.747Z,13.44
2024-04-05T05:56:15.940Z,13.43
2024-04-05T05:57:15.833Z,13.40
2024-04-05T05:58:15.721Z,13.39
2024-04-05T05:59:15.623Z,13.37
2024-04-05T06:00:16.270Z,13.36
2024-04-05T06:01:15.679Z,13.36
2024-04-05T06:02:15.590Z,13.37
2024-04-05T06:03:15.767Z,13.38
2024-04-05T06:04:15.650Z,13.40
2024-04-05T06:05:15.552Z,13.42
2024-04-05T06:06:16.207Z,13.46
2024-04-05T06:07:15.618Z,13.49
2024-04-05T06:08:15.520Z,13.52
2024-04-05T06:09:15.680Z,13.57
2024-04-05T06:10:15.582Z,13.60
2024-04-05T06:11:15.489Z,13.64
2024-04-05T06:12:16.128Z,13.68
2024-04-05T06:13:15.552Z,13.70
2024-04-05T06:14:15.467Z,13.71
2024-04-05T06:15:16.110Z,13.73
2024-04-05T06:16:15.526Z,13.74
2024-04-05T06:17:15.434Z,13.76
2024-04-05T06:18:16.073Z,13.79
2024-04-05T06:19:15.491Z,13.80
2024-04-05T06:20:15.651Z,13.82
2024-04-05T06:21:15.553Z,13.84
2024-04-05T06:22:15.460Z,13.85
2024-04-05T06:23:15.384Z,13.87
2024-04-05T06:24:16.014Z,13.89
2024-04-05T06:25:15.423Z,13.93
2024-04-05T06:26:15.340Z,13.98
2024-04-05T06:27:15.523Z,14.07
2024-04-05T06:28:15.401Z,14.19
2024-04-05T06:29:15.326Z,14.33
2024-04-05T06:30:15.464Z,14.42
2024-04-05T06:31:15.368Z,14.45
2024-04-05T06:32:15.263Z,14.50
2024-04-05T06:33:15.919Z,14.47
2024-04-05T06:34:15.355Z,14.44
2024-04-05T06:35:15.235Z,14.42
2024-04-05T06:36:15.907Z,14.40
2024-04-05T06:37:15.322Z,14.38
2024-04-05T06:38:15.207Z,14.37
2024-04-05T06:39:15.371Z,14.36
2024-04-05T06:40:15.263Z,14.36
2024-04-05T06:41:15.189Z,14.37
2024-04-05T06:42:15.345Z,14.38
2024-04-05T06:43:15.232Z,14.39
2024-04-05T06:44:15.135Z,14.40
2024-04-05T06:45:15.794Z,14.42
2024-04-05T06:46:15.226Z,14.44
2024-04-05T06:47:15.118Z,14.46
2024-04-05T06:48:15.748Z,14.48
2024-04-05T06:49:15.170Z,14.52
2024-04-05T06:50:15.068Z,14.54
2024-04-05T06:51:15.235Z,14.59
2024-04-05T06:52:15.136Z,14.67
2024-04-05T06:53:15.046Z,14.76
2024-04-05T06:54:15.207Z,14.87
2024-04-05T06:55:15.103Z,14.98
2024-04-05T06:56:15.545Z,15.10
2024-04-05T06:57:15.656Z,15.25
2024-04-05T06:58:15.080Z,15.38
2024-04-05T06:59:14.988Z,15.86
2024-04-05T07:00:15.158Z,16.26
2024-04-05T07:01:15.040Z,16.66
2024-04-05T07:02:14.955Z,17.09
2024-04-05T07:03:15.595Z,17.09
2024-04-05T07:04:15.004Z,16.91
2024-04-05T07:05:14.921Z,16.77
2024-04-05T07:06:15.075Z,16.63
2024-04-05T07:07:14.980Z,16.51
2024-04-05T07:08:14.879Z,16.44
2024-04-05T07:09:15.038Z,16.35
2024-04-05T07:10:15.374Z,16.30
2024-04-05T07:11:14.872Z,16.25
2024-04-05T07:12:15.006Z,16.23
2024-04-05T07:13:14.980Z,16.20
2024-04-05T07:14:14.816Z,16.20
2024-04-05T07:15:15.495Z,16.19
2024-04-05T07:16:14.878Z,16.20
2024-04-05T07:17:14.786Z,16.20
2024-04-05T07:18:14.942Z,16.22
2024-04-05T07:19:14.847Z,16.27
2024-04-05T07:20:14.761Z,16.35
2024-04-05T07:21:15.400Z,16.45
2024-04-05T07:22:14.816Z,16.55
2024-04-05T07:23:14.725Z,16.63
2024-04-05T07:24:15.361Z,16.71
2024-04-05T07:25:14.787Z,16.74
2024-04-05T07:26:14.687Z,16.77
2024-04-05T07:27:14.870Z,16.81
2024-04-05T07:28:14.750Z,16.86
2024-04-05T07:29:14.656Z,16.94
2024-04-05T07:30:15.291Z,17.02
2024-04-05T07:31:14.724Z,17.08
2024-04-05T07:32:14.622Z,17.12
2024-04-05T07:33:15.273Z,17.19
2024-04-05T07:34:13.797Z,17.25
2024-04-05T07:35:14.614Z,17.32
2024-04-05T07:36:14.759Z,17.41
2024-04-05T07:37:16.218Z,17.49
2024-04-05T07:38:13.801Z,17.58
2024-04-05T07:39:15.203Z,17.68
2024-04-05T07:40:13.747Z,17.80
2024-04-05T07:41:14.526Z,17.96
2024-04-05T07:42:14.685Z,18.15
2024-04-05T07:43:14.591Z,18.31
2024-04-05T07:44:14.511Z,18.48
2024-04-05T07:45:14.658Z,18.63
2024-04-05T07:46:13.672Z,18.80
2024-04-05T07:47:14.462Z,19.03
2024-04-05T07:48:14.732Z,19.35
2024-04-05T07:49:14.531Z,19.67
2024-04-05T07:50:13.756Z,19.88
2024-04-05T07:51:14.593Z,20.04
2024-04-05T07:52:14.499Z,20.27
2024-04-05T07:53:14.396Z,20.50
2024-04-05T07:54:14.300Z,20.86
2024-04-05T07:55:13.591Z,21.38
2024-04-05T07:56:14.365Z,21.73
2024-04-05T07:57:14.312Z,21.65
2024-04-05T07:58:14.428Z,21.60
2024-04-05T07:59:14.361Z,21.60
2024-04-05T08:00:14.970Z,21.55
2024-04-05T08:01:14.407Z,21.49
2024-04-05T08:02:14.555Z,21.33
2024-04-05T08:03:14.461Z,21.13
2024-04-05T08:04:14.362Z,20.92
2024-04-05T08:05:14.270Z,20.70
2024-04-05T08:06:14.435Z,20.48
2024-04-05T08:07:14.334Z,20.29
2024-04-05T08:08:13.485Z,20.14
2024-04-05T08:09:14.405Z,20.00
2024-04-05T08:10:14.302Z,19.86
2024-04-05T08:11:13.395Z,19.70
2024-04-05T08:12:13.404Z,19.54
2024-04-05T08:13:13.434Z,19.39
2024-04-05T08:14:14.175Z,19.25
2024-04-05T08:15:14.086Z,19.09
2024-04-05T08:16:14.236Z,18.94
2024-04-05T08:17:13.342Z,18.80
2024-04-05T08:18:13.330Z,18.67
2024-04-05T08:19:14.206Z,18.55
2024-04-05T08:20:13.346Z,18.44
2024-04-05T08:21:13.314Z,18.36
2024-04-05T08:22:13.316Z,18.30
2024-04-05T08:23:13.280Z,18.27
2024-04-05T08:24:13.260Z,18.22
2024-04-05T08:25:14.144Z,18.17
2024-04-05T08:26:14.302Z,18.14
2024-04-05T08:27:13.950Z,18.10
2024-04-05T08:28:14.108Z,18.06
2024-04-05T08:29:13.212Z,18.01
2024-04-05T08:30:13.191Z,17.95
2024-04-05T08:31:13.185Z,17.89
2024-04-05T08:32:13.985Z,17.85
2024-04-05T08:33:13.889Z,17.83
2024-04-05T08:34:13.191Z,17.80
2024-04-05T08:35:13.135Z,17.79
2024-04-05T08:36:13.126Z,17.77
2024-04-05T08:37:13.198Z,17.76
2024-04-05T08:38:13.923Z,17.78
2024-04-05T08:39:13.825Z,17.79
2024-04-05T08:40:13.985Z,17.80
2024-04-05T08:41:13.150Z,17.83
2024-04-05T08:42:13.070Z,17.85
2024-04-05T08:43:13.954Z,17.86
2024-04-05T08:44:13.853Z,17.87
2024-04-05T08:45:13.759Z,17.84
2024-04-05T08:46:13.917Z,17.81
2024-04-05T08:47:14.496Z,17.79
2024-04-05T08:48:12.997Z,17.76
2024-04-05T08:49:13.104Z,17.75
2024-04-05T08:50:13.790Z,17.74
2024-04-05T08:51:13.704Z,17.73
2024-04-05T08:52:12.948Z,17.73
2024-04-05T08:53:14.746Z,17.80
2024-04-05T08:54:12.934Z,17.89
2024-04-05T08:55:12.998Z,17.98
2024-04-05T08:56:13.729Z,18.07
2024-04-05T08:57:13.633Z,18.16
2024-04-05T08:58:12.911Z,18.25
2024-04-05T08:59:12.881Z,18.36
2024-04-05T09:00:12.879Z,18.44
2024-04-05T09:01:12.919Z,18.51
2024-04-05T09:02:12.850Z,18.53
2024-04-05T09:03:13.572Z,18.55
2024-04-05T09:04:13.744Z,18.56
2024-04-05T09:05:13.632Z,18.58
2024-04-05T09:06:12.811Z,18.61
2024-04-05T09:07:13.699Z,18.65
2024-04-05T09:08:13.596Z,18.67
2024-04-05T09:09:12.768Z,18.69
2024-04-05T09:10:13.663Z,18.71
2024-04-05T09:11:12.740Z,18.72
2024-04-05T09:12:13.478Z,18.73
2024-04-05T09:13:12.790Z,18.75
2024-04-05T09:14:13.537Z,18.75
2024-04-05T09:15:13.447Z,18.78
2024-04-05T09:16:13.602Z,18.81
2024-04-05T09:17:12.684Z,18.85
2024-04-05T09:18:13.408Z,18.90
2024-04-05T09:19:12.704Z,18.94
2024-04-05T09:20:12.669Z,18.98
2024-04-05T09:21:13.374Z,18.99
2024-04-05T09:22:12.634Z,19.02
2024-04-05T09:23:13.548Z,19.05
2024-04-05T09:24:13.350Z,19.08
2024-04-05T09:25:13.507Z,19.09
2024-04-05T09:26:13.404Z,19.10
2024-04-05T09:27:13.311Z,19.10
2024-04-05T09:28:13.470Z,19.10
2024-04-05T09:29:13.375Z,19.10
2024-04-05T09:30:13.278Z,19.14
2024-04-05T09:31:13.436Z,19.19
2024-04-05T09:32:12.540Z,19.27
2024-04-05T09:33:13.248Z,19.36
2024-04-05T09:34:12.510Z,19.43
2024-04-05T09:35:12.493Z,19.48
2024-04-05T09:36:13.216Z,19.53
2024-04-05T09:37:13.374Z,19.57
2024-04-05T09:38:13.278Z,19.62
2024-04-05T09:39:13.180Z,19.70
2024-04-05T09:40:13.343Z,19.79
2024-04-05T09:41:13.248Z,19.84
2024-04-05T09:42:13.150Z,19.88
2024-04-05T09:43:12.447Z,19.92
2024-04-05T09:44:18.154Z,19.94
2024-04-05T09:45:13.384Z,19.95
2024-04-05T09:46:13.282Z,19.96
2024-04-05T09:47:13.180Z,19.95
2024-04-05T09:48:13.097Z,19.93
2024-04-05T09:49:13.248Z,19.93
2024-04-05T09:50:13.156Z,19.92
2024-04-05T09:51:13.058Z,19.94
2024-04-05T09:52:13.219Z,19.98
2024-04-05T09:53:13.121Z,20.01
2024-04-05T09:54:13.024Z,20.02
2024-04-05T09:55:13.188Z,20.03
2024-04-05T09:56:13.086Z,20.05
2024-04-05T09:57:13.003Z,20.09
2024-04-05T09:58:13.150Z,20.13
2024-04-05T09:59:13.056Z,20.18
2024-04-05T10:00:12.956Z,20.22
2024-04-05T10:01:13.140Z,20.29
2024-04-05T10:02:13.076Z,20.35
2024-04-05T10:03:12.928Z,20.42
2024-04-05T10:04:13.142Z,20.48
2024-04-05T10:05:13.150Z,20.53
2024-04-05T10:06:12.895Z,20.59
2024-04-05T10:07:13.054Z,20.65
2024-04-05T10:08:12.962Z,20.69
2024-04-05T10:09:12.871Z,20.73
2024-04-05T10:10:13.024Z,20.79
2024-04-05T10:11:12.944Z,20.84
2024-04-05T10:12:12.930Z,20.91
2024-04-05T10:13:12.135Z,20.96
2024-04-05T10:14:12.907Z,20.99
2024-04-05T10:15:12.050Z,20.98
2024-04-05T10:16:12.956Z,20.98
2024-04-05T10:17:13.985Z,20.99
2024-04-05T10:18:12.771Z,21.01
2024-04-05T10:19:12.925Z,21.01
2024-04-05T10:20:12.025Z,20.95
2024-04-05T10:21:12.751Z,20.91
2024-04-05T10:22:12.897Z,20.85
2024-04-05T10:23:12.838Z,20.77
2024-04-05T10:24:12.703Z,20.70
2024-04-05T10:25:12.863Z,20.62
2024-04-05T10:26:12.766Z,20.54
2024-04-05T10:27:12.671Z,20.43
2024-04-05T10:28:12.833Z,20.29
2024-04-05T10:29:12.752Z,20.13
2024-04-05T10:30:12.646Z,19.96
2024-04-05T10:31:12.801Z,19.82
2024-04-05T10:32:12.717Z,19.66
2024-04-05T10:33:12.605Z,19.55
2024-04-05T10:34:12.765Z,19.48
2024-04-05T10:35:15.171Z,19.41
2024-04-05T10:36:12.590Z,19.35
2024-04-05T10:37:12.730Z,19.28
2024-04-05T10:38:19.518Z,19.20
2024-04-05T10:39:15.472Z,19.14
2024-04-05T10:40:11.806Z,19.05
2024-04-05T10:41:12.606Z,18.98
2024-04-05T10:42:12.513Z,18.93
2024-04-05T10:43:12.668Z,18.89
2024-04-05T10:44:12.577Z,18.85
2024-04-05T10:45:12.484Z,18.82
2024-04-05T10:46:12.704Z,18.75
2024-04-05T10:47:12.544Z,18.68
2024-04-05T10:48:12.453Z,18.61
2024-04-05T10:49:11.713Z,18.53
2024-04-05T10:50:12.515Z,18.44
2024-04-05T10:51:12.416Z,18.37
2024-04-05T10:52:12.579Z,18.32
2024-04-05T10:53:12.486Z,18.29
2024-04-05T10:54:12.383Z,18.24
2024-04-05T10:55:12.547Z,18.20
2024-04-05T10:56:12.453Z,18.16
2024-04-05T10:57:12.354Z,18.13
2024-04-05T10:58:12.516Z,18.12
2024-04-05T10:59:12.420Z,18.12
2024-04-05T11:00:12.337Z,18.13
2024-04-05T11:01:12.750Z,18.15
2024-04-05T11:02:12.381Z,18.17
2024-04-05T11:03:12.285Z,18.22
2024-04-05T11:04:12.463Z,18.26
2024-04-05T11:05:11.532Z,18.33
2024-04-05T11:06:12.461Z,18.36
2024-04-05T11:07:12.416Z,18.44
2024-04-05T11:08:11.498Z,18.53
2024-04-05T11:09:12.219Z,18.62
2024-04-05T11:10:23.296Z,18.68
2024-04-05T11:11:13.437Z,18.71
2024-04-05T11:12:12.188Z,18.72
2024-04-05T11:13:12.348Z,18.72
2024-04-05T11:14:12.261Z,18.71
2024-04-05T11:15:11.412Z,18.70
2024-04-05T11:16:11.436Z,18.71
2024-04-05T11:17:11.403Z,18.75
2024-04-05T11:18:12.125Z,18.82
2024-04-05T11:19:12.289Z,18.90
2024-04-05T11:20:12.207Z,19.00
2024-04-05T11:21:12.090Z,19.13
2024-04-05T11:22:11.347Z,19.25
2024-04-05T11:23:11.350Z,19.42
2024-04-05T11:24:11.351Z,19.60
2024-04-05T11:25:11.353Z,19.77
2024-04-05T11:26:11.312Z,19.83
2024-04-05T11:27:11.284Z,19.86
2024-04-05T11:28:11.274Z,19.85
2024-04-05T11:29:12.094Z,19.83
2024-04-05T11:30:11.996Z,19.81
2024-04-05T11:31:12.158Z,19.84
2024-04-05T11:32:11.237Z,19.91
2024-04-05T11:33:11.963Z,20.04
2024-04-05T11:34:11.233Z,20.15
2024-04-05T11:35:11.196Z,20.21
2024-04-05T11:36:11.939Z,20.28
2024-04-05T11:37:12.138Z,20.44
2024-04-05T11:38:11.996Z,20.69
2024-04-05T11:39:11.159Z,20.92
2024-04-05T11:40:11.183Z,21.13
2024-04-05T11:41:11.967Z,21.32
2024-04-05T11:42:11.869Z,21.49
2024-04-05T11:43:12.104Z,21.61
2024-04-05T11:44:11.092Z,21.68
2024-04-05T11:45:11.102Z,21.74
2024-04-05T11:46:11.078Z,21.78
2024-04-05T11:47:11.900Z,21.85
2024-04-05T11:48:11.059Z,21.88
2024-04-05T11:49:11.145Z,21.87
2024-04-05T11:50:11.036Z,21.82
2024-04-05T11:51:13.472Z,21.79
2024-04-05T11:52:11.933Z,21.78
2024-04-05T11:53:11.841Z,21.78
2024-04-05T11:54:11.003Z,21.74
2024-04-05T11:55:11.903Z,21.70
2024-04-05T11:56:11.017Z,21.66
2024-04-05T11:57:11.810Z,21.63
2024-04-05T11:58:11.870Z,21.58
2024-04-05T11:59:10.958Z,21.54
2024-04-05T12:00:11.807Z,21.54
2024-04-05T12:01:10.944Z,21.53
2024-04-05T12:02:11.810Z,21.51
2024-04-05T12:03:11.666Z,21.46
2024-04-05T12:04:11.832Z,21.41
2024-04-05T12:05:10.876Z,21.36
2024-04-05T12:06:11.711Z,21.28
2024-04-05T12:07:10.893Z,21.19
2024-04-05T12:08:13.480Z,21.11
2024-04-05T12:09:11.606Z,21.07
2024-04-05T12:10:11.777Z,21.05
2024-04-05T12:11:10.806Z,21.04
2024-04-05T12:12:11.559Z,21.05
2024-04-05T12:13:11.762Z,21.07
2024-04-05T12:14:14.598Z,21.09
2024-04-05T12:15:12.699Z,21.08
2024-04-05T12:16:11.752Z,21.05
2024-04-05T12:17:11.594Z,21.04
2024-04-05T12:18:11.487Z,21.02
2024-04-05T12:19:11.654Z,20.98
2024-04-05T12:20:12.765Z,20.93
2024-04-05T12:21:11.489Z,20.90
2024-04-05T12:22:11.619Z,20.87
2024-04-05T12:23:11.527Z,20.86
2024-04-05T12:24:11.419Z,20.85
2024-04-05T12:25:10.772Z,20.82
2024-04-05T12:26:11.794Z,20.79
2024-04-05T12:27:16.669Z,20.72
2024-04-05T12:28:11.618Z,20.66
2024-04-05T12:29:10.597Z,20.60
2024-04-05T12:30:11.369Z,20.55
2024-04-05T12:31:11.517Z,20.49
2024-04-05T12:32:12.140Z,20.43
2024-04-05T12:33:10.550Z,20.40
2024-04-05T12:34:11.485Z,20.41
2024-04-05T12:35:10.549Z,20.43
2024-04-05T12:36:10.544Z,20.48
2024-04-05T12:37:10.539Z,20.54
2024-04-05T12:38:26.133Z,20.64
2024-04-05T12:39:12.284Z,20.77
2024-04-05T12:40:11.421Z,20.88
2024-04-05T12:41:11.334Z,20.97
2024-04-05T12:42:10.484Z,21.05
2024-04-05T12:43:11.387Z,21.09
2024-04-05T12:44:11.295Z,21.12
2024-04-05T12:45:11.195Z,21.15
2024-04-05T12:46:11.359Z,21.19
2024-04-05T12:47:11.259Z,21.21
2024-04-05T12:48:10.427Z,21.19
2024-04-05T12:49:10.422Z,21.17
2024-04-05T12:50:11.236Z,21.18
2024-04-05T12:51:11.133Z,21.24
2024-04-05T12:52:11.291Z,21.29